Time;durP1;ratioP1;P1;durP2;ratioP2;P2;SDS_P1;SDS_P2;PMS_P1;PMS_P2;Temp;Humidity;BMP_temperature;BMP_pressure;BME280_temperature;BME280_humidity;BME280_pressure;Samples;Min_cycle;Max_cycle;Signal;HPM_P1;HPM_P2
2023/10/23 00:01:38;;;;;;;7.60;3.60;;;7.90;99.90;;;;;;5076068;28;20040;-56
2023/10/23 00:04:05;;;;;;;7.50;3.30;;;7.80;99.90;;;;;;5077038;28;20041;-57
2023/10/23 00:06:32;;;;;;;7.50;3.25;;;7.80;99.90;;;;;;5075742;28;20060;-57
2023/10/23 00:08:59;;;;;;;6.95;3.75;;;7.80;99.90;;;;;;5077009;28;20399;-59
2023/10/23 00:11:26;;;;;;;7.20;3.13;;;7.80;99.90;;;;;;5077273;28;20045;-57
2023/10/23 00:13:53;;;;;;;7.13;3.13;;;7.80;99.90;;;;;;5075700;28;20355;-56
2023/10/23 00:16:19;;;;;;;8.10;3.22;;;7.80;99.90;;;;;;5076288;28;20438;-58
2023/10/23 00:18:46;;;;;;;6.78;2.90;;;7.80;99.90;;;;;;5076938;28;20585;-55
2023/10/23 00:21:13;;;;;;;6.60;3.10;;;7.80;99.90;;;;;;5076643;28;20049;-56
2023/10/23 00:23:40;;;;;;;6.57;3.20;;;7.80;99.90;;;;;;5076663;28;20368;-55
2023/10/23 00:26:07;;;;;;;8.10;3.40;;;7.80;99.90;;;;;;5074814;28;20040;-57
2023/10/23 00:28:35;;;;;;;7.90;3.10;;;7.70;99.90;;;;;;5052773;28;20151;-58
2023/10/23 00:31:02;;;;;;;8.40;3.47;;;7.70;99.90;;;;;;5074724;28;20173;-57
2023/10/23 00:33:29;;;;;;;7.05;3.15;;;7.70;99.90;;;;;;5074460;28;20053;-57
2023/10/23 00:35:56;;;;;;;5.85;3.13;;;7.70;99.90;;;;;;5076340;28;20042;-57
2023/10/23 00:38:23;;;;;;;6.43;3.20;;;7.70;99.90;;;;;;5075010;28;20067;-52
2023/10/23 00:40:50;;;;;;;9.95;3.28;;;7.70;99.90;;;;;;5076561;28;20076;-56
2023/10/23 00:43:17;;;;;;;10.88;3.28;;;7.70;99.90;;;;;;5076009;28;20059;-54
2023/10/23 00:45:44;;;;;;;6.03;2.90;;;7.70;99.90;;;;;;5074540;28;20127;-56
2023/10/23 00:48:10;;;;;;;8.57;2.80;;;7.60;99.90;;;;;;5076402;28;20094;-57
2023/10/23 00:50:37;;;;;;;6.20;3.00;;;7.60;99.90;;;;;;5074762;28;20108;-55
2023/10/23 00:53:04;;;;;;;5.47;2.72;;;7.60;99.90;;;;;;5076296;28;20064;-55
2023/10/23 00:55:31;;;;;;;6.30;3.10;;;7.60;99.90;;;;;;5074400;28;20064;-52
2023/10/23 00:57:58;;;;;;;6.97;2.90;;;7.60;99.90;;;;;;5075833;28;20046;-52
2023/10/23 01:00:25;;;;;;;6.72;2.58;;;7.60;99.90;;;;;;5075804;28;20399;-53
2023/10/23 01:02:51;;;;;;;7.70;2.90;;;7.60;99.90;;;;;;5074247;28;20128;-55
2023/10/23 01:05:18;;;;;;;7.63;2.60;;;7.60;99.90;;;;;;5075929;28;20037;-58
2023/10/23 01:07:45;;;;;;;6.95;2.83;;;7.60;99.90;;;;;;5075543;28;20037;-58
2023/10/23 01:10:12;;;;;;;6.00;2.33;;;7.60;99.90;;;;;;5075743;28;20044;-55
2023/10/23 01:12:40;;;;;;;5.30;2.63;;;7.50;99.90;;;;;;5075816;28;20048;-53
2023/10/23 01:15:07;;;;;;;6.30;2.50;;;7.50;99.90;;;;;;5074199;28;20052;-55
2023/10/23 01:17:34;;;;;;;8.30;2.70;;;7.50;99.90;;;;;;5074277;28;20105;-58
2023/10/23 01:20:00;;;;;;;5.68;2.22;;;7.50;99.90;;;;;;5075709;28;20394;-60
2023/10/23 01:22:27;;;;;;;8.13;2.47;;;7.50;99.90;;;;;;5057645;28;20041;-61
2023/10/23 01:24:54;;;;;;;5.78;2.40;;;7.50;99.90;;;;;;5074299;28;20344;-61
2023/10/23 01:27:21;;;;;;;6.63;2.58;;;7.50;99.90;;;;;;5074515;28;20040;-58
2023/10/23 01:29:48;;;;;;;6.40;1.92;;;7.50;99.90;;;;;;5075445;28;20379;-58
2023/10/23 01:32:14;;;;;;;4.47;2.00;;;7.50;99.90;;;;;;5075075;28;20049;-54
2023/10/23 01:34:41;;;;;;;6.53;1.90;;;7.60;99.90;;;;;;5075414;28;20043;-57
2023/10/23 01:37:08;;;;;;;10.93;2.53;;;7.60;99.90;;;;;;5075015;28;20040;-56
2023/10/23 01:39:35;;;;;;;8.57;2.25;;;7.60;99.90;;;;;;5075229;28;20048;-56
2023/10/23 01:42:02;;;;;;;8.40;2.53;;;7.60;99.90;;;;;;5073673;28;20033;-57
2023/10/23 01:44:29;;;;;;;6.75;2.10;;;7.60;99.90;;;;;;5075150;28;20037;-56
2023/10/23 01:46:56;;;;;;;9.32;1.83;;;7.70;99.90;;;;;;5075108;28;20041;-59
2023/10/23 01:49:23;;;;;;;10.43;2.53;;;7.70;99.90;;;;;;5074795;28;20087;-57
2023/10/23 01:51:49;;;;;;;6.20;2.03;;;7.70;99.90;;;;;;5074913;28;20037;-57
2023/10/23 01:54:16;;;;;;;9.38;2.42;;;7.70;99.90;;;;;;5074798;28;20044;-55
2023/10/23 01:56:43;;;;;;;13.30;2.40;;;7.80;99.90;;;;;;5074668;28;20046;-59
2023/10/23 01:59:10;;;;;;;9.45;2.17;;;7.70;99.90;;;;;;5073071;28;20128;-61
2023/10/23 02:01:39;;;;;;;5.32;2.17;;;7.70;99.90;;;;;;5073256;28;20048;-57
2023/10/23 02:04:07;;;;;;;8.27;2.20;;;7.70;99.90;;;;;;5074332;28;20070;-60
2023/10/23 02:06:34;;;;;;;7.22;2.40;;;7.70;99.90;;;;;;5073012;28;20090;-56
2023/10/23 02:09:01;;;;;;;5.60;2.10;;;7.70;99.90;;;;;;5074624;28;20041;-57
2023/10/23 02:11:28;;;;;;;7.85;2.17;;;7.70;99.90;;;;;;5074075;28;20036;-59
2023/10/23 02:13:54;;;;;;;4.65;1.80;;;7.70;99.90;;;;;;5073311;28;20045;-57
2023/10/23 02:16:21;;;;;;;6.47;2.00;;;7.70;99.90;;;;;;5074048;28;20083;-57
2023/10/23 02:18:48;;;;;;;6.00;2.42;;;7.70;99.90;;;;;;5072924;28;20051;-57
2023/10/23 02:21:15;;;;;;;7.03;2.20;;;7.60;99.90;;;;;;5073050;28;20063;-59
2023/10/23 02:23:43;;;;;;;5.43;2.00;;;7.60;99.90;;;;;;5074386;28;20073;-58
2023/10/23 02:26:22;;;;;;;6.22;2.28;;;7.60;99.90;;;;;;5074634;28;20044;-58
2023/10/23 02:28:49;;;;;;;7.18;1.98;;;7.70;99.90;;;;;;5073101;28;20153;-56
2023/10/23 02:31:16;;;;;;;6.50;2.10;;;7.70;99.90;;;;;;5072829;28;20040;-60
2023/10/23 02:33:42;;;;;;;5.93;2.20;;;7.70;99.90;;;;;;5074297;28;20403;-57
2023/10/23 02:36:09;;;;;;;6.18;2.17;;;7.70;99.90;;;;;;5074089;28;20495;-57
2023/10/23 02:38:36;;;;;;;12.35;2.20;;;7.80;99.90;;;;;;5056094;28;20040;-58
2023/10/23 02:41:03;;;;;;;9.00;2.20;;;7.80;99.90;;;;;;5074182;28;20049;-58
2023/10/23 02:43:30;;;;;;;6.72;2.00;;;7.80;99.90;;;;;;5072360;28;20033;-55
2023/10/23 02:45:56;;;;;;;6.55;2.22;;;7.80;99.90;;;;;;5073868;28;20047;-56
2023/10/23 02:48:23;;;;;;;3.88;1.70;;;7.80;99.90;;;;;;5072551;28;20484;-58
2023/10/23 02:50:50;;;;;;;6.40;1.77;;;7.80;99.90;;;;;;5074124;28;20056;-56
2023/10/23 02:53:17;;;;;;;8.18;1.98;;;7.80;99.90;;;;;;5073995;28;20387;-59
2023/10/23 02:55:44;;;;;;;10.48;1.70;;;7.80;99.90;;;;;;5073814;28;20072;-56
2023/10/23 02:58:10;;;;;;;11.25;2.10;;;7.80;99.90;;;;;;5055930;28;20518;-58
2023/10/23 03:00:38;;;;;;;10.00;1.75;;;7.80;99.90;;;;;;5073628;28;20040;-55
2023/10/23 03:03:05;;;;;;;9.45;1.70;;;7.80;99.90;;;;;;5073570;28;20542;-53
2023/10/23 03:05:33;;;;;;;8.05;1.98;;;7.80;99.90;;;;;;5073916;28;20049;-59
2023/10/23 03:08:00;;;;;;;7.00;1.75;;;7.80;99.90;;;;;;5074015;28;20369;-52
2023/10/23 03:10:27;;;;;;;8.20;2.10;;;7.90;99.90;;;;;;5072228;28;20045;-60
2023/10/23 03:12:54;;;;;;;4.03;1.50;;;7.90;99.90;;;;;;5072604;28;20036;-57
2023/10/23 03:15:21;;;;;;;7.10;1.88;;;7.90;99.90;;;;;;5072269;28;20407;-55
2023/10/23 03:17:48;;;;;;;8.23;1.63;;;7.90;99.90;;;;;;5073573;28;20049;-53
2023/10/23 03:20:14;;;;;;;5.47;1.58;;;7.90;99.90;;;;;;5072494;28;20041;-56
2023/10/23 03:22:41;;;;;;;5.53;1.58;;;7.90;99.90;;;;;;5073625;28;20590;-55
2023/10/23 03:25:08;;;;;;;8.52;1.85;;;7.90;99.90;;;;;;5073585;28;20124;-59
2023/10/23 03:27:35;;;;;;;8.27;2.15;;;7.90;99.90;;;;;;5072713;28;20048;-57
2023/10/23 03:30:02;;;;;;;3.80;1.50;;;7.90;99.90;;;;;;5076138;28;20136;-57
2023/10/23 03:32:29;;;;;;;5.82;1.80;;;7.90;99.90;;;;;;5077758;28;20059;-53
2023/10/23 03:34:57;;;;;;;6.28;1.80;;;7.90;99.90;;;;;;5077923;28;20519;-60
2023/10/23 03:37:24;;;;;;;5.85;1.55;;;7.90;99.90;;;;;;5077792;28;20044;-58
2023/10/23 03:39:52;;;;;;;8.50;1.60;;;7.90;99.90;;;;;;5077191;28;20462;-56
2023/10/23 03:42:18;;;;;;;10.40;2.00;;;7.90;99.90;;;;;;5077155;28;20136;-60
2023/10/23 03:44:45;;;;;;;7.45;1.83;;;7.90;99.90;;;;;;5077387;28;20082;-58
2023/10/23 03:47:12;;;;;;;4.63;1.80;;;7.90;99.90;;;;;;5076482;28;20043;-60
2023/10/23 03:49:39;;;;;;;9.43;1.67;;;8.00;99.90;;;;;;5077148;28;20049;-56
2023/10/23 03:52:06;;;;;;;5.97;1.88;;;8.00;99.90;;;;;;5077112;28;20132;-59
2023/10/23 03:54:33;;;;;;;6.82;1.55;;;8.00;99.90;;;;;;5077233;28;20048;-59
2023/10/23 03:56:59;;;;;;;8.73;1.83;;;8.00;99.90;;;;;;5075565;28;20040;-56
2023/10/23 03:59:26;;;;;;;8.10;1.70;;;8.10;99.90;;;;;;5076786;28;20119;-53
2023/10/23 04:01:53;;;;;;;5.70;2.10;;;8.10;99.90;;;;;;5076746;28;20090;-58
2023/10/23 04:04:20;;;;;;;6.75;1.73;;;8.20;99.90;;;;;;5076371;28;20128;-53
2023/10/23 04:06:46;;;;;;;8.55;2.00;;;8.20;99.90;;;;;;5076603;28;20456;-60
2023/10/23 04:09:13;;;;;;;6.65;1.70;;;8.30;99.90;;;;;;5075394;28;20094;-55
2023/10/23 04:11:40;;;;;;;7.65;1.92;;;8.30;99.90;;;;;;5076625;28;20048;-57
2023/10/23 04:14:07;;;;;;;6.10;2.15;;;8.30;99.90;;;;;;5076499;28;20075;-55
2023/10/23 04:16:33;;;;;;;8.68;1.85;;;8.40;99.90;;;;;;5076442;28;20450;-58
2023/10/23 04:19:00;;;;;;;6.30;1.80;;;8.40;99.90;;;;;;5076523;28;20459;-56
2023/10/23 04:21:27;;;;;;;7.93;2.20;;;8.40;99.90;;;;;;5076771;28;20102;-60
2023/10/23 04:23:54;;;;;;;9.77;2.00;;;8.40;99.90;;;;;;5075234;28;20463;-53
2023/10/23 04:26:21;;;;;;;7.15;1.88;;;8.50;99.90;;;;;;5076827;28;20033;-55
2023/10/23 04:28:48;;;;;;;6.78;1.92;;;8.50;99.90;;;;;;5076834;28;20041;-58
2023/10/23 04:31:14;;;;;;;7.15;2.08;;;8.50;99.90;;;;;;5076676;28;20040;-60
2023/10/23 04:33:41;;;;;;;5.72;1.55;;;8.50;99.90;;;;;;5076215;28;20056;-55
2023/10/23 04:36:08;;;;;;;7.63;2.38;;;8.50;99.90;;;;;;5076346;28;20047;-58
2023/10/23 04:38:35;;;;;;;8.32;2.22;;;8.50;99.90;;;;;;5075991;28;20044;-60
2023/10/23 04:41:02;;;;;;;6.80;2.25;;;8.50;99.90;;;;;;5076365;28;20044;-54
2023/10/23 04:43:28;;;;;;;5.50;1.90;;;8.50;99.90;;;;;;5076645;28;20047;-59
2023/10/23 04:45:55;;;;;;;5.88;2.10;;;8.50;99.90;;;;;;5076588;28;20471;-56
2023/10/23 04:48:22;;;;;;;7.45;2.30;;;8.50;99.90;;;;;;5076305;28;20064;-57
2023/10/23 04:50:49;;;;;;;7.78;3.22;;;8.50;99.90;;;;;;5075827;28;20041;-56
2023/10/23 04:53:16;;;;;;;10.07;2.63;;;8.40;99.90;;;;;;5076203;28;20071;-59
2023/10/23 04:55:42;;;;;;;7.43;2.13;;;8.40;99.90;;;;;;5058401;28;20513;-58
2023/10/23 04:58:09;;;;;;;7.47;2.70;;;8.40;99.90;;;;;;5075706;28;20390;-55
2023/10/23 05:00:36;;;;;;;8.55;2.50;;;8.40;99.90;;;;;;5075526;28;20398;-54
2023/10/23 05:03:03;;;;;;;6.15;2.30;;;8.30;99.90;;;;;;5076226;28;20043;-57
2023/10/23 05:05:30;;;;;;;7.07;2.50;;;8.30;99.90;;;;;;5075974;28;20090;-58
2023/10/23 05:07:57;;;;;;;7.00;2.60;;;8.30;99.90;;;;;;5076076;28;20068;-58
2023/10/23 05:10:24;;;;;;;5.35;2.40;;;8.30;99.90;;;;;;5075640;28;20055;-53
2023/10/23 05:12:51;;;;;;;10.18;2.60;;;8.20;99.90;;;;;;5075847;28;20040;-59
2023/10/23 05:15:17;;;;;;;7.97;2.40;;;8.20;99.90;;;;;;5075956;28;20052;-55
2023/10/23 05:17:44;;;;;;;8.15;2.50;;;8.20;99.90;;;;;;5075796;28;20430;-58
2023/10/23 05:20:11;;;;;;;9.02;2.40;;;8.20;99.90;;;;;;5075812;28;20041;-58
2023/10/23 05:22:38;;;;;;;5.47;2.53;;;8.20;99.90;;;;;;5075937;28;20079;-58
2023/10/23 05:25:05;;;;;;;9.38;2.88;;;8.10;99.90;;;;;;5075345;28;20041;-54
2023/10/23 05:27:32;;;;;;;7.88;2.55;;;8.10;99.90;;;;;;5075294;28;20067;-53
2023/10/23 05:29:59;;;;;;;11.95;3.20;;;8.10;99.90;;;;;;5075386;28;20042;-57
2023/10/23 05:32:26;;;;;;;10.50;3.03;;;8.10;99.90;;;;;;5075119;28;20052;-58
2023/10/23 05:34:53;;;;;;;7.78;2.88;;;8.00;99.90;;;;;;5074125;28;20052;-54
2023/10/23 05:37:19;;;;;;;11.13;3.33;;;8.10;99.90;;;;;;5073630;28;20127;-57
2023/10/23 05:39:46;;;;;;;9.40;3.13;;;8.00;99.90;;;;;;5075042;28;20044;-59
2023/10/23 05:42:13;;;;;;;7.95;3.33;;;8.00;99.90;;;;;;5075242;28;20506;-53
2023/10/23 05:44:42;;;;;;;8.07;3.13;;;8.00;99.90;;;;;;5075294;28;20059;-58
2023/10/23 05:47:09;;;;;;;8.88;3.20;;;8.00;99.90;;;;;;5075085;28;20068;-57
2023/10/23 05:49:36;;;;;;;12.05;2.78;;;8.00;99.90;;;;;;5074786;28;20051;-59
2023/10/23 05:52:03;;;;;;;10.63;3.20;;;8.00;99.90;;;;;;5074424;28;20045;-56
2023/10/23 05:54:30;;;;;;;8.80;3.08;;;8.00;99.90;;;;;;5074868;28;20102;-57
2023/10/23 05:56:57;;;;;;;8.57;3.22;;;8.00;99.90;;;;;;5074706;28;20124;-54
2023/10/23 05:59:24;;;;;;;7.30;3.03;;;8.00;99.90;;;;;;5074604;28;20041;-60
2023/10/23 06:01:50;;;;;;;9.45;3.72;;;8.00;99.90;;;;;;5075011;28;20062;-54
2023/10/23 06:04:17;;;;;;;11.38;4.57;;;8.00;99.90;;;;;;5075000;28;20468;-60
2023/10/23 06:06:44;;;;;;;8.48;3.85;;;7.90;99.90;;;;;;5074883;28;20036;-56
2023/10/23 06:09:11;;;;;;;8.57;3.10;;;8.00;99.90;;;;;;5074540;28;20071;-58
2023/10/23 06:11:38;;;;;;;6.20;2.88;;;8.00;99.90;;;;;;5074548;28;20032;-57
2023/10/23 06:14:05;;;;;;;8.73;2.88;;;8.10;99.90;;;;;;5074582;28;20101;-57
2023/10/23 06:16:32;;;;;;;9.93;2.95;;;8.10;99.90;;;;;;5074391;28;20044;-55
2023/10/23 06:18:59;;;;;;;6.93;2.97;;;8.20;99.90;;;;;;5074206;28;20044;-53
2023/10/23 06:21:26;;;;;;;9.13;3.40;;;8.30;99.90;;;;;;5074391;28;20048;-59
2023/10/23 06:23:53;;;;;;;10.20;3.20;;;8.30;99.90;;;;;;5072856;28;20127;-59
2023/10/23 06:26:20;;;;;;;9.70;3.30;;;8.40;99.90;;;;;;5074332;28;20040;-57
2023/10/23 06:28:47;;;;;;;7.93;3.10;;;8.40;99.90;;;;;;5073943;28;20421;-58
2023/10/23 06:31:13;;;;;;;9.35;3.05;;;8.50;99.90;;;;;;5074175;28;20059;-57
2023/10/23 06:33:42;;;;;;;9.98;3.40;;;8.50;99.90;;;;;;5073861;28;20072;-54
2023/10/23 06:36:09;;;;;;;6.55;2.90;;;8.50;99.90;;;;;;5074109;28;20047;-59
2023/10/23 06:38:36;;;;;;;9.68;2.95;;;8.60;99.90;;;;;;5074053;28;20111;-53
2023/10/23 06:41:04;;;;;;;8.02;2.97;;;8.60;99.90;;;;;;5074308;28;20135;-56
2023/10/23 06:43:31;;;;;;;10.25;3.58;;;8.60;99.90;;;;;;5074310;28;20044;-56
2023/10/23 06:45:58;;;;;;;9.57;3.90;;;8.50;99.90;;;;;;5074148;28;20040;-54
2023/10/23 06:48:28;;;;;;;9.45;3.67;;;8.50;99.90;;;;;;5074433;28;20044;-52
2023/10/23 06:50:55;;;;;;;10.23;4.22;;;8.50;99.90;;;;;;5073863;28;20090;-51
2023/10/23 06:53:22;;;;;;;10.43;3.70;;;8.50;99.90;;;;;;5073803;28;20037;-59
2023/10/23 06:55:49;;;;;;;8.13;3.38;;;8.50;99.90;;;;;;5074114;28;20051;-53
2023/10/23 06:58:16;;;;;;;11.02;3.80;;;8.50;99.90;;;;;;5073908;28;20036;-53
2023/10/23 07:00:42;;;;;;;14.40;3.75;;;8.50;99.90;;;;;;5073576;28;20041;-56
2023/10/23 07:03:09;;;;;;;11.23;3.88;;;8.50;99.90;;;;;;5073999;28;20084;-53
2023/10/23 07:05:36;;;;;;;10.30;3.72;;;8.50;99.90;;;;;;5082659;28;20040;-54
2023/10/23 07:08:03;;;;;;;8.45;3.70;;;8.50;99.90;;;;;;5073466;28;20048;-53
2023/10/23 07:10:30;;;;;;;9.68;3.65;;;8.50;99.90;;;;;;5073250;28;20036;-55
2023/10/23 07:12:57;;;;;;;11.63;4.25;;;8.50;99.90;;;;;;5071921;28;20131;-58
2023/10/23 07:15:30;;;;;;;11.50;3.53;;;8.50;99.90;;;;;;5067751;28;20045;-53
2023/10/23 07:17:57;;;;;;;11.48;4.32;;;8.50;99.90;;;;;;5071913;28;20079;-55
2023/10/23 07:20:24;;;;;;;14.20;4.30;;;8.50;99.90;;;;;;5072269;28;20052;-55
2023/10/23 07:22:50;;;;;;;11.98;4.32;;;8.50;99.90;;;;;;5073403;28;20041;-56
2023/10/23 07:25:17;;;;;;;14.80;4.68;;;8.50;99.90;;;;;;5073395;28;20039;-59
2023/10/23 07:27:44;;;;;;;12.32;4.30;;;8.60;99.90;;;;;;5078047;28;20407;-56
2023/10/23 07:30:11;;;;;;;13.75;4.57;;;8.60;99.90;;;;;;5066772;28;20394;-56
2023/10/23 07:32:38;;;;;;;15.13;5.03;;;8.60;99.90;;;;;;5073211;28;20059;-55
2023/10/23 07:35:05;;;;;;;12.50;4.93;;;8.60;99.90;;;;;;5073219;28;20056;-54
2023/10/23 07:37:33;;;;;;;11.80;4.50;;;8.70;99.90;;;;;;5073238;28;20040;-55
2023/10/23 07:40:00;;;;;;;12.63;4.80;;;8.70;99.90;;;;;;5073323;28;20041;-56
2023/10/23 07:42:27;;;;;;;15.25;5.22;;;8.70;99.90;;;;;;5075645;28;20123;-56
2023/10/23 07:44:53;;;;;;;14.38;5.10;;;8.70;99.90;;;;;;5069431;28;20122;-57
2023/10/23 07:47:20;;;;;;;10.30;5.18;;;8.80;99.90;;;;;;5054757;28;20054;-53
2023/10/23 07:49:47;;;;;;;18.05;7.15;;;8.90;99.90;;;;;;5072891;28;20032;-51
2023/10/23 07:52:14;;;;;;;13.00;4.93;;;9.00;99.90;;;;;;5071993;28;20116;-51
2023/10/23 07:54:41;;;;;;;19.20;5.78;;;9.00;99.90;;;;;;5072544;28;20475;-56
2023/10/23 07:57:08;;;;;;;18.20;4.78;;;9.00;99.90;;;;;;5074003;28;20570;-58
2023/10/23 07:59:35;;;;;;;11.30;5.00;;;9.10;99.90;;;;;;5071268;28;20040;-54
2023/10/23 08:02:03;;;;;;;12.10;4.30;;;9.20;99.90;;;;;;5072285;28;20048;-60
2023/10/23 08:04:30;;;;;;;12.35;5.28;;;9.20;99.90;;;;;;5072443;28;20044;-55
2023/10/23 08:06:57;;;;;;;12.68;5.03;;;9.30;99.90;;;;;;5066330;28;20036;-55
2023/10/23 08:09:24;;;;;;;9.52;4.38;;;9.30;99.90;;;;;;5070910;28;20066;-54
2023/10/23 08:11:51;;;;;;;14.73;5.15;;;9.40;99.90;;;;;;5071712;28;20114;-54
2023/10/23 08:14:18;;;;;;;14.75;4.47;;;9.50;99.90;;;;;;5072947;28;20423;-56
2023/10/23 08:16:44;;;;;;;23.83;5.20;;;9.50;99.90;;;;;;5076062;28;20041;-57
2023/10/23 08:19:12;;;;;;;18.25;4.30;;;9.60;99.90;;;;;;5076015;28;20058;-58
2023/10/23 08:21:39;;;;;;;11.07;4.07;;;9.70;99.90;;;;;;5075942;28;20036;-58
2023/10/23 08:24:06;;;;;;;11.02;4.28;;;9.70;99.90;;;;;;5075653;28;20040;-53
2023/10/23 08:26:33;;;;;;;12.68;4.05;;;9.80;99.90;;;;;;5080011;28;20074;-55
2023/10/23 08:29:00;;;;;;;14.45;4.13;;;9.90;99.90;;;;;;5076037;28;20094;-55
2023/10/23 08:31:30;;;;;;;15.25;4.50;;;10.00;99.90;;;;;;5075841;28;20032;-55
2023/10/23 08:34:05;;;;;;;11.50;4.70;;;10.00;99.90;;;;;;5075582;28;20049;-54
2023/10/23 08:36:33;;;;;;;11.98;3.70;;;10.10;99.90;;;;;;5068801;28;20391;-57
2023/10/23 08:39:00;;;;;;;14.05;3.88;;;10.20;99.90;;;;;;5069228;28;20041;-55
2023/10/23 08:41:27;;;;;;;15.30;3.78;;;10.20;99.90;;;;;;5069249;28;20040;-53
2023/10/23 08:43:55;;;;;;;13.60;3.85;;;10.30;99.90;;;;;;5075702;28;20438;-53
2023/10/23 08:46:22;;;;;;;11.85;3.58;;;10.40;99.90;;;;;;5075607;28;20094;-55
2023/10/23 08:48:49;;;;;;;15.43;3.47;;;10.50;99.90;;;;;;5069077;28;20464;-56
2023/10/23 08:51:16;;;;;;;15.90;3.67;;;10.60;99.90;;;;;;5068746;28;20452;-57
2023/10/23 08:53:43;;;;;;;16.58;3.13;;;10.70;99.90;;;;;;5075270;28;20033;-54
2023/10/23 08:56:14;;;;;;;16.40;4.32;;;10.70;99.90;;;;;;5081927;28;20437;-60
2023/10/23 08:58:41;;;;;;;12.73;3.13;;;10.90;99.90;;;;;;5075872;28;20040;-57
2023/10/23 09:01:08;;;;;;;13.40;3.88;;;10.90;99.90;;;;;;5075834;28;20040;-56
2023/10/23 09:03:35;;;;;;;11.43;2.85;;;11.00;99.90;;;;;;5069180;28;20107;-55
2023/10/23 09:06:22;;;;;;;16.05;3.45;;;11.10;99.90;;;;;;5071024;28;20041;-53
2023/10/23 09:08:49;;;;;;;10.10;2.47;;;11.10;99.90;;;;;;5074961;28;20036;-53
2023/10/23 09:11:15;;;;;;;12.80;2.63;;;11.20;99.90;;;;;;5074928;28;20052;-55
2023/10/23 09:13:42;;;;;;;17.30;3.03;;;11.30;99.90;;;;;;5075162;28;20036;-54
2023/10/23 09:16:09;;;;;;;12.57;2.83;;;11.40;99.90;;;;;;5074655;28;20083;-61
2023/10/23 09:18:36;;;;;;;16.33;2.83;;;11.50;99.90;;;;;;5074851;28;20056;-54
2023/10/23 09:21:03;;;;;;;15.93;2.88;;;11.50;99.90;;;;;;5075054;28;20398;-57
2023/10/23 09:23:30;;;;;;;12.25;2.45;;;11.60;99.90;;;;;;5075086;28;20372;-58
2023/10/23 09:25:58;;;;;;;11.90;2.92;;;11.60;99.90;;;;;;5075994;28;20036;-58
2023/10/23 09:28:25;;;;;;;12.75;2.53;;;11.70;99.90;;;;;;5074522;28;20517;-58
2023/10/23 09:30:52;;;;;;;11.93;2.92;;;11.70;99.90;;;;;;5074572;28;20391;-58
2023/10/23 09:33:22;;;;;;;12.00;2.60;;;11.80;99.90;;;;;;5074519;28;20131;-57
2023/10/23 09:35:49;;;;;;;11.00;2.50;;;11.80;99.90;;;;;;5074824;28;20075;-57
2023/10/23 09:38:16;;;;;;;13.43;2.42;;;11.90;99.90;;;;;;5075018;28;20062;-52
2023/10/23 09:40:43;;;;;;;11.55;2.78;;;12.00;99.90;;;;;;5073445;28;20410;-55
2023/10/23 09:43:09;;;;;;;13.57;2.88;;;12.00;99.90;;;;;;5074748;28;20036;-54
2023/10/23 09:45:36;;;;;;;13.00;2.47;;;12.10;99.90;;;;;;5074173;28;20453;-57
2023/10/23 09:48:03;;;;;;;14.10;2.75;;;12.20;99.90;;;;;;5074316;28;20048;-58
2023/10/23 09:50:30;;;;;;;14.48;2.80;;;12.20;99.90;;;;;;5074337;28;20040;-58
2023/10/23 09:52:58;;;;;;;14.15;2.67;;;12.30;99.90;;;;;;5074511;28;20032;-57
2023/10/23 09:55:25;;;;;;;11.98;3.25;;;12.30;99.90;;;;;;5074226;28;20410;-56
2023/10/23 09:57:52;;;;;;;13.68;2.92;;;12.40;99.90;;;;;;5078612;28;20042;-55
2023/10/23 10:00:19;;;;;;;13.38;2.45;;;12.50;99.90;;;;;;5071138;28;20040;-56
2023/10/23 10:02:45;;;;;;;11.70;2.97;;;12.50;99.90;;;;;;5074001;28;20064;-54
2023/10/23 10:05:13;;;;;;;19.45;3.70;;;12.60;99.90;;;;;;5073769;28;20040;-54
2023/10/23 10:07:39;;;;;;;14.82;3.10;;;12.70;99.90;;;;;;5073767;28;20036;-57
2023/10/23 10:10:06;;;;;;;12.95;2.75;;;12.70;99.90;;;;;;5073951;28;20058;-56
2023/10/23 10:12:37;;;;;;;13.13;2.75;;;12.80;99.90;;;;;;5073952;28;20093;-53
2023/10/23 10:15:04;;;;;;;11.10;3.13;;;12.80;99.90;;;;;;5072419;28;20586;-50
2023/10/23 10:17:31;;;;;;;13.52;2.50;;;12.90;99.90;;;;;;5073964;28;20041;-52
2023/10/23 10:19:58;;;;;;;12.60;2.70;;;13.00;99.90;;;;;;5073762;28;20052;-59
2023/10/23 10:22:25;;;;;;;8.93;2.30;;;13.00;99.90;;;;;;5073880;28;20078;-58
2023/10/23 10:24:52;;;;;;;13.82;3.53;;;13.10;99.90;;;;;;5073902;28;20040;-53
2023/10/23 10:27:20;;;;;;;16.77;2.50;;;13.10;99.90;;;;;;5072703;28;20044;-53
2023/10/23 10:29:47;;;;;;;11.02;2.28;;;13.20;99.90;;;;;;5073494;28;20133;-55
2023/10/23 10:32:14;;;;;;;9.73;2.40;;;13.20;99.90;;;;;;5073302;28;20127;-54
2023/10/23 10:34:41;;;;;;;15.15;2.58;;;13.20;99.90;;;;;;5073563;28;20045;-52
2023/10/23 10:37:08;;;;;;;11.10;2.72;;;13.30;99.90;;;;;;5072889;28;20036;-52
2023/10/23 10:39:52;;;;;;;10.43;2.55;;;13.30;99.90;;;;;;5073194;28;20052;-59
2023/10/23 10:42:19;;;;;;;9.38;2.33;;;13.40;99.90;;;;;;5072146;28;20044;-57
2023/10/23 10:44:45;;;;;;;13.80;2.80;;;13.40;99.90;;;;;;5072982;28;20064;-58
2023/10/23 10:47:13;;;;;;;16.70;2.63;;;13.50;99.90;;;;;;5073072;28;20150;-52
2023/10/23 10:49:41;;;;;;;9.98;2.42;;;13.50;99.90;;;;;;5073037;28;20056;-59
2023/10/23 10:52:08;;;;;;;11.23;2.38;;;13.60;99.90;;;;;;5072957;28;20037;-59
2023/10/23 10:54:35;;;;;;;14.43;2.42;;;13.60;99.90;;;;;;5072992;28;20040;-60
2023/10/23 10:57:02;;;;;;;14.25;2.50;;;13.70;99.90;;;;;;5076218;28;20434;-58
2023/10/23 10:59:29;;;;;;;12.77;2.63;;;13.70;99.90;;;;;;5071692;28;20052;-57
2023/10/23 11:01:56;;;;;;;11.82;2.60;;;13.80;99.90;;;;;;5072904;28;20052;-61
2023/10/23 11:04:23;;;;;;;11.60;2.30;;;13.80;99.90;;;;;;5073066;28;20529;-57
2023/10/23 11:06:50;;;;;;;13.85;2.92;;;13.80;99.90;;;;;;5077012;28;20110;-61
2023/10/23 11:09:17;;;;;;;13.88;2.33;;;13.90;99.90;;;;;;5072802;28;20044;-60
2023/10/23 11:11:53;;;;;;;11.18;2.70;;;13.90;99.90;;;;;;5073100;28;20097;-54
2023/10/23 11:14:20;;;;;;;11.02;2.42;;;14.00;99.90;;;;;;5072964;28;20036;-60
2023/10/23 11:16:47;;;;;;;10.75;2.90;;;13.90;99.90;;;;;;5072704;28;20513;-58
2023/10/23 11:19:14;;;;;;;10.55;2.38;;;14.00;99.90;;;;;;5072507;28;20048;-56
2023/10/23 11:21:41;;;;;;;10.88;2.60;;;14.00;99.90;;;;;;5072682;28;20094;-59
2023/10/23 11:24:08;;;;;;;16.23;3.35;;;14.10;99.90;;;;;;5072620;28;20040;-57
2023/10/23 11:26:37;;;;;;;10.55;2.58;;;14.10;99.90;;;;;;5072296;28;20094;-56
2023/10/23 11:29:04;;;;;;;12.82;2.47;;;14.20;99.90;;;;;;5072682;28;20083;-57
2023/10/23 11:31:31;;;;;;;9.85;2.58;;;14.20;99.90;;;;;;5072617;28;20490;-56
2023/10/23 11:33:58;;;;;;;11.98;2.50;;;14.20;99.90;;;;;;5072301;28;20080;-58
2023/10/23 11:36:26;;;;;;;10.18;2.40;;;14.30;99.90;;;;;;5073099;28;20048;-58
2023/10/23 11:38:53;;;;;;;10.00;2.88;;;14.30;99.90;;;;;;5072596;28;20127;-54
2023/10/23 11:41:20;;;;;;;11.77;2.55;;;14.40;99.90;;;;;;5072554;28;20045;-57
2023/10/23 11:43:46;;;;;;;12.40;2.22;;;14.40;99.90;;;;;;5072464;28;20491;-58
2023/10/23 11:46:13;;;;;;;14.55;2.58;;;14.40;99.90;;;;;;5072415;28;20387;-59
2023/10/23 11:48:40;;;;;;;10.35;2.33;;;14.40;99.90;;;;;;5055210;28;20041;-56
2023/10/23 11:51:07;;;;;;;9.40;2.33;;;14.40;99.90;;;;;;5076906;28;20487;-55
2023/10/23 11:53:34;;;;;;;11.23;2.05;;;14.40;99.90;;;;;;5077099;28;20544;-55
2023/10/23 11:56:01;;;;;;;11.85;2.53;;;14.40;99.90;;;;;;5076825;28;20036;-57
2023/10/23 11:58:29;;;;;;;9.95;2.25;;;14.50;99.90;;;;;;5081360;28;20043;-56
2023/10/23 12:00:56;;;;;;;12.52;2.85;;;14.50;99.90;;;;;;5076624;28;20048;-54
2023/10/23 12:03:23;;;;;;;10.40;2.35;;;14.50;99.90;;;;;;5076597;28;20074;-56
2023/10/23 12:05:50;;;;;;;10.32;2.45;;;14.50;99.90;;;;;;5076603;28;20127;-54
2023/10/23 12:08:17;;;;;;;9.00;2.63;;;14.50;99.90;;;;;;5079113;28;20041;-55
2023/10/23 12:10:44;;;;;;;9.50;2.17;;;14.50;99.90;;;;;;5076600;28;20076;-56
2023/10/23 12:13:11;;;;;;;11.40;2.50;;;14.60;99.90;;;;;;5076033;28;20090;-58
2023/10/23 12:15:38;;;;;;;12.85;3.13;;;14.60;99.90;;;;;;5076924;28;20053;-56
2023/10/23 12:18:05;;;;;;;10.65;2.60;;;14.60;99.90;;;;;;5078867;28;20044;-54
2023/10/23 12:20:32;;;;;;;12.68;2.90;;;14.60;99.90;;;;;;5075195;28;20044;-54
2023/10/23 12:22:59;;;;;;;11.90;3.22;;;14.70;99.90;;;;;;5075342;28;20382;-59
2023/10/23 12:25:26;;;;;;;11.38;2.67;;;14.70;99.90;;;;;;5076355;28;20045;-59
2023/10/23 12:27:53;;;;;;;7.85;2.80;;;14.70;99.90;;;;;;5076637;28;20484;-57
2023/10/23 12:30:20;;;;;;;14.80;3.70;;;14.70;99.90;;;;;;5081047;28;20493;-60
2023/10/23 12:32:52;;;;;;;11.15;3.20;;;14.70;99.90;;;;;;5076309;28;20057;-57
2023/10/23 12:35:39;;;;;;;9.60;2.90;;;14.70;99.90;;;;;;5079990;28;20068;-56
2023/10/23 12:38:06;;;;;;;12.27;2.88;;;14.80;99.90;;;;;;5076348;28;20147;-57
2023/10/23 12:40:33;;;;;;;10.80;3.10;;;14.80;99.90;;;;;;5074867;28;20161;-55
2023/10/23 12:43:03;;;;;;;12.90;3.45;;;14.80;99.90;;;;;;5076066;28;20049;-60
2023/10/23 12:45:31;;;;;;;12.45;3.45;;;14.80;99.90;;;;;;5076047;28;20048;-55
2023/10/23 12:47:59;;;;;;;11.00;3.03;;;14.80;99.90;;;;;;5078337;28;20056;-56